TW-0025 weather

Taipei City Government Fire Bureau Helipad
Taipei, Taipei (municipality), Taiwan

Public forecast

Using degrees Celsius for public forecast. Weather courtesy of forecast.io.

METAR (pilot weather report)

Closest report is Taipei Songshan Airport, 2.0 nm (3.6 km) NNW. Retrieved 2019/07/22 17:00 UTC (28 minutes ago):

RCSS 221700Z 09003KT 9999 FEW015 26/24 Q1008 NOSIG RMK A2977

TAF (pilot weather forecast)

Closest forecast is Taipei Songshan Airport, 2.0 nm (3.6 km) NNW. Retrieved 2019/07/22 12:00 UTC (5 hours ago):

TAF RCSS 221100Z 2212/2312 09005KT 9999 FEW012 BKN032 TEMPO 2212/2216 FEW010 BKN020 BKN040 BECMG 2300/2302 30005KT TEMPO 2306/2312 25010KT TEMPO 2307/2311 2000 TSRA FEW005 FEW010CB BKN013 BKN040